sensor_id;sensor_type;location;lat;lon;timestamp;P1;durP1;ratioP1;P2;durP2;ratioP2
68178;SDS011;54998;42.656;23.382;2022-12-05T00:00:58;10.48;;;4.80;;
68178;SDS011;54998;42.656;23.382;2022-12-05T00:03:24;8.95;;;3.78;;
68178;SDS011;54998;42.656;23.382;2022-12-05T00:05:50;14.70;;;5.65;;
68178;SDS011;54998;42.656;23.382;2022-12-05T00:08:16;12.38;;;4.85;;
68178;SDS011;54998;42.656;23.382;2022-12-05T00:10:42;10.90;;;5.13;;
68178;SDS011;54998;42.656;23.382;2022-12-05T00:13:07;10.88;;;4.93;;
68178;SDS011;54998;42.656;23.382;2022-12-05T00:15:37;11.63;;;5.22;;
68178;SDS011;54998;42.656;23.382;2022-12-05T00:18:03;12.27;;;5.18;;
68178;SDS011;54998;42.656;23.382;2022-12-05T00:20:28;12.10;;;5.07;;
68178;SDS011;54998;42.656;23.382;2022-12-05T00:22:54;13.23;;;5.10;;
68178;SDS011;54998;42.656;23.382;2022-12-05T00:25:19;11.98;;;5.80;;
68178;SDS011;54998;42.656;23.382;2022-12-05T00:27:44;12.65;;;5.82;;
68178;SDS011;54998;42.656;23.382;2022-12-05T00:30:10;13.25;;;5.05;;
68178;SDS011;54998;42.656;23.382;2022-12-05T00:32:35;11.20;;;5.78;;
68178;SDS011;54998;42.656;23.382;2022-12-05T00:35:01;17.45;;;6.82;;
68178;SDS011;54998;42.656;23.382;2022-12-05T00:37:26;16.13;;;7.10;;
68178;SDS011;54998;42.656;23.382;2022-12-05T00:39:52;18.80;;;7.32;;
68178;SDS011;54998;42.656;23.382;2022-12-05T00:42:17;15.93;;;7.05;;
68178;SDS011;54998;42.656;23.382;2022-12-05T00:44:42;19.27;;;6.88;;
68178;SDS011;54998;42.656;23.382;2022-12-05T00:47:08;17.33;;;6.85;;
68178;SDS011;54998;42.656;23.382;2022-12-05T00:49:33;16.63;;;6.38;;
68178;SDS011;54998;42.656;23.382;2022-12-05T00:51:59;16.45;;;6.22;;
68178;SDS011;54998;42.656;23.382;2022-12-05T00:54:24;15.80;;;7.03;;
68178;SDS011;54998;42.656;23.382;2022-12-05T00:56:49;12.02;;;5.40;;
68178;SDS011;54998;42.656;23.382;2022-12-05T00:59:20;14.48;;;6.35;;
68178;SDS011;54998;42.656;23.382;2022-12-05T01:01:46;13.07;;;5.88;;
68178;SDS011;54998;42.656;23.382;2022-12-05T01:04:14;15.95;;;5.63;;
68178;SDS011;54998;42.656;23.382;2022-12-05T01:06:42;15.55;;;5.80;;
68178;SDS011;54998;42.656;23.382;2022-12-05T01:09:09;9.02;;;4.63;;
68178;SDS011;54998;42.656;23.382;2022-12-05T01:11:36;16.02;;;6.18;;
68178;SDS011;54998;42.656;23.382;2022-12-05T01:14:02;15.05;;;5.65;;
68178;SDS011;54998;42.656;23.382;2022-12-05T01:16:30;16.58;;;6.07;;
68178;SDS011;54998;42.656;23.382;2022-12-05T01:18:57;11.50;;;4.80;;
68178;SDS011;54998;42.656;23.382;2022-12-05T01:21:24;11.48;;;5.38;;
68178;SDS011;54998;42.656;23.382;2022-12-05T01:23:49;11.30;;;5.03;;
68178;SDS011;54998;42.656;23.382;2022-12-05T01:26:16;14.45;;;6.05;;
68178;SDS011;54998;42.656;23.382;2022-12-05T01:28:44;15.07;;;6.70;;
68178;SDS011;54998;42.656;23.382;2022-12-05T01:31:52;15.23;;;6.65;;
68178;SDS011;54998;42.656;23.382;2022-12-05T01:34:00;10.13;;;5.20;;
68178;SDS011;54998;42.656;23.382;2022-12-05T01:36:28;13.88;;;5.72;;
68178;SDS011;54998;42.656;23.382;2022-12-05T01:38:54;13.70;;;5.05;;
68178;SDS011;54998;42.656;23.382;2022-12-05T01:41:25;12.18;;;5.53;;
68178;SDS011;54998;42.656;23.382;2022-12-05T01:46:20;14.30;;;6.03;;
68178;SDS011;54998;42.656;23.382;2022-12-05T01:48:46;13.15;;;5.15;;
68178;SDS011;54998;42.656;23.382;2022-12-05T01:51:11;14.18;;;5.90;;
68178;SDS011;54998;42.656;23.382;2022-12-05T01:53:37;14.25;;;5.63;;
68178;SDS011;54998;42.656;23.382;2022-12-05T01:56:03;13.65;;;5.50;;
68178;SDS011;54998;42.656;23.382;2022-12-05T01:58:30;11.13;;;4.32;;
68178;SDS011;54998;42.656;23.382;2022-12-05T02:01:00;11.27;;;5.35;;
68178;SDS011;54998;42.656;23.382;2022-12-05T02:03:26;10.73;;;4.47;;
68178;SDS011;54998;42.656;23.382;2022-12-05T02:05:53;13.00;;;4.90;;
68178;SDS011;54998;42.656;23.382;2022-12-05T02:08:20;10.63;;;4.50;;
68178;SDS011;54998;42.656;23.382;2022-12-05T02:10:49;10.50;;;5.03;;
68178;SDS011;54998;42.656;23.382;2022-12-05T02:13:34;14.55;;;6.05;;
68178;SDS011;54998;42.656;23.382;2022-12-05T02:27:58;13.18;;;5.55;;
68178;SDS011;54998;42.656;23.382;2022-12-05T02:30:38;13.32;;;4.75;;
68178;SDS011;54998;42.656;23.382;2022-12-05T02:36:22;15.10;;;6.28;;
68178;SDS011;54998;42.656;23.382;2022-12-05T02:41:33;12.50;;;5.47;;
68178;SDS011;54998;42.656;23.382;2022-12-05T02:44:22;14.98;;;6.03;;
68178;SDS011;54998;42.656;23.382;2022-12-05T02:49:36;13.18;;;5.30;;
68178;SDS011;54998;42.656;23.382;2022-12-05T02:52:08;10.35;;;5.32;;
68178;SDS011;54998;42.656;23.382;2022-12-05T02:54:38;13.45;;;5.25;;
68178;SDS011;54998;42.656;23.382;2022-12-05T02:57:06;11.73;;;4.30;;
68178;SDS011;54998;42.656;23.382;2022-12-05T02:59:34;10.65;;;5.03;;
68178;SDS011;54998;42.656;23.382;2022-12-05T03:01:59;13.88;;;5.90;;
68178;SDS011;54998;42.656;23.382;2022-12-05T03:04:24;11.40;;;4.10;;
68178;SDS011;54998;42.656;23.382;2022-12-05T03:06:53;13.48;;;5.50;;
68178;SDS011;54998;42.656;23.382;2022-12-05T03:09:27;13.25;;;5.65;;
68178;SDS011;54998;42.656;23.382;2022-12-05T03:12:11;10.85;;;4.80;;
68178;SDS011;54998;42.656;23.382;2022-12-05T03:14:45;11.38;;;5.63;;
68178;SDS011;54998;42.656;23.382;2022-12-05T03:17:15;11.43;;;6.00;;
68178;SDS011;54998;42.656;23.382;2022-12-05T03:22:22;12.55;;;5.93;;
68178;SDS011;54998;42.656;23.382;2022-12-05T03:24:49;12.43;;;5.45;;
68178;SDS011;54998;42.656;23.382;2022-12-05T03:29:49;14.90;;;6.28;;
68178;SDS011;54998;42.656;23.382;2022-12-05T03:32:23;11.68;;;4.95;;
68178;SDS011;54998;42.656;23.382;2022-12-05T03:40:28;13.27;;;5.22;;
68178;SDS011;54998;42.656;23.382;2022-12-05T03:43:07;9.95;;;5.55;;
68178;SDS011;54998;42.656;23.382;2022-12-05T03:45:46;14.75;;;5.97;;
68178;SDS011;54998;42.656;23.382;2022-12-05T03:48:36;12.00;;;5.45;;
68178;SDS011;54998;42.656;23.382;2022-12-05T03:51:07;11.18;;;4.40;;
68178;SDS011;54998;42.656;23.382;2022-12-05T03:53:43;14.40;;;5.43;;
68178;SDS011;54998;42.656;23.382;2022-12-05T03:56:16;12.57;;;5.70;;
68178;SDS011;54998;42.656;23.382;2022-12-05T03:59:00;15.82;;;5.75;;
68178;SDS011;54998;42.656;23.382;2022-12-05T04:01:35;12.65;;;5.72;;
68178;SDS011;54998;42.656;23.382;2022-12-05T04:04:07;12.80;;;4.72;;
68178;SDS011;54998;42.656;23.382;2022-12-05T04:06:38;13.10;;;5.63;;
68178;SDS011;54998;42.656;23.382;2022-12-05T04:09:11;11.57;;;5.13;;
68178;SDS011;54998;42.656;23.382;2022-12-05T04:11:44;14.55;;;6.07;;
68178;SDS011;54998;42.656;23.382;2022-12-05T04:14:23;15.85;;;6.53;;
68178;SDS011;54998;42.656;23.382;2022-12-05T04:16:58;14.10;;;5.55;;
68178;SDS011;54998;42.656;23.382;2022-12-05T04:19:31;9.57;;;3.90;;
68178;SDS011;54998;42.656;23.382;2022-12-05T04:22:35;12.07;;;4.00;;
68178;SDS011;54998;42.656;23.382;2022-12-05T04:25:03;13.68;;;5.32;;
68178;SDS011;54998;42.656;23.382;2022-12-05T04:27:51;11.43;;;4.30;;
68178;SDS011;54998;42.656;23.382;2022-12-05T04:30:19;15.38;;;6.18;;
68178;SDS011;54998;42.656;23.382;2022-12-05T04:35:37;13.40;;;5.55;;
68178;SDS011;54998;42.656;23.382;2022-12-05T04:38:38;13.05;;;5.20;;
68178;SDS011;54998;42.656;23.382;2022-12-05T04:41:06;14.38;;;4.95;;
68178;SDS011;54998;42.656;23.382;2022-12-05T04:43:38;16.00;;;5.70;;
68178;SDS011;54998;42.656;23.382;2022-12-05T04:46:07;12.70;;;5.43;;
68178;SDS011;54998;42.656;23.382;2022-12-05T04:48:36;14.50;;;6.03;;
68178;SDS011;54998;42.656;23.382;2022-12-05T04:51:04;13.38;;;5.75;;
68178;SDS011;54998;42.656;23.382;2022-12-05T04:53:32;12.90;;;4.63;;
68178;SDS011;54998;42.656;23.382;2022-12-05T04:56:11;12.75;;;5.28;;
68178;SDS011;54998;42.656;23.382;2022-12-05T04:58:46;10.80;;;5.03;;
68178;SDS011;54998;42.656;23.382;2022-12-05T05:03:56;12.30;;;5.22;;
68178;SDS011;54998;42.656;23.382;2022-12-05T05:06:27;3.90;;;1.90;;
68178;SDS011;54998;42.656;23.382;2022-12-05T05:08:54;12.25;;;5.38;;
68178;SDS011;54998;42.656;23.382;2022-12-05T05:11:21;11.90;;;4.90;;
68178;SDS011;54998;42.656;23.382;2022-12-05T05:13:52;15.30;;;5.85;;
68178;SDS011;54998;42.656;23.382;2022-12-05T05:16:19;12.70;;;5.15;;
68178;SDS011;54998;42.656;23.382;2022-12-05T05:18:49;14.90;;;6.25;;
68178;SDS011;54998;42.656;23.382;2022-12-05T05:21:16;16.55;;;6.35;;
68178;SDS011;54998;42.656;23.382;2022-12-05T05:23:46;12.02;;;5.07;;
68178;SDS011;54998;42.656;23.382;2022-12-05T05:26:12;16.90;;;6.95;;
68178;SDS011;54998;42.656;23.382;2022-12-05T05:28:37;14.30;;;6.28;;
68178;SDS011;54998;42.656;23.382;2022-12-05T05:31:03;18.35;;;6.82;;
68178;SDS011;54998;42.656;23.382;2022-12-05T05:33:30;14.38;;;6.55;;
68178;SDS011;54998;42.656;23.382;2022-12-05T05:35:56;15.13;;;7.13;;
68178;SDS011;54998;42.656;23.382;2022-12-05T05:38:21;11.75;;;5.22;;
68178;SDS011;54998;42.656;23.382;2022-12-05T05:40:47;9.18;;;4.47;;
68178;SDS011;54998;42.656;23.382;2022-12-05T05:43:13;15.63;;;6.57;;
68178;SDS011;54998;42.656;23.382;2022-12-05T05:45:38;11.77;;;4.80;;
68178;SDS011;54998;42.656;23.382;2022-12-05T05:48:03;15.77;;;5.72;;
68178;SDS011;54998;42.656;23.382;2022-12-05T05:50:29;15.57;;;6.53;;
68178;SDS011;54998;42.656;23.382;2022-12-05T05:52:54;18.42;;;7.03;;
68178;SDS011;54998;42.656;23.382;2022-12-05T05:55:20;13.43;;;6.45;;
68178;SDS011;54998;42.656;23.382;2022-12-05T05:57:45;13.55;;;5.93;;
68178;SDS011;54998;42.656;23.382;2022-12-05T06:00:11;16.20;;;6.80;;
68178;SDS011;54998;42.656;23.382;2022-12-05T06:02:37;13.32;;;5.43;;
68178;SDS011;54998;42.656;23.382;2022-12-05T06:05:02;15.10;;;6.57;;
68178;SDS011;54998;42.656;23.382;2022-12-05T06:07:28;14.35;;;6.72;;
68178;SDS011;54998;42.656;23.382;2022-12-05T06:09:54;11.18;;;4.75;;
68178;SDS011;54998;42.656;23.382;2022-12-05T06:12:19;11.98;;;5.28;;
68178;SDS011;54998;42.656;23.382;2022-12-05T06:14:48;13.90;;;6.53;;
68178;SDS011;54998;42.656;23.382;2022-12-05T06:17:14;16.35;;;6.03;;
68178;SDS011;54998;42.656;23.382;2022-12-05T06:19:40;15.20;;;7.10;;
68178;SDS011;54998;42.656;23.382;2022-12-05T06:22:05;13.57;;;5.88;;
68178;SDS011;54998;42.656;23.382;2022-12-05T06:24:31;14.30;;;5.35;;
68178;SDS011;54998;42.656;23.382;2022-12-05T06:26:56;12.38;;;5.68;;
68178;SDS011;54998;42.656;23.382;2022-12-05T06:29:21;12.95;;;4.70;;
68178;SDS011;54998;42.656;23.382;2022-12-05T06:31:47;13.45;;;5.63;;
68178;SDS011;54998;42.656;23.382;2022-12-05T06:34:12;17.27;;;6.43;;
68178;SDS011;54998;42.656;23.382;2022-12-05T06:36:38;10.20;;;5.28;;
68178;SDS011;54998;42.656;23.382;2022-12-05T06:39:03;13.82;;;5.78;;
68178;SDS011;54998;42.656;23.382;2022-12-05T06:41:29;15.32;;;7.13;;
68178;SDS011;54998;42.656;23.382;2022-12-05T06:43:55;12.73;;;5.80;;
68178;SDS011;54998;42.656;23.382;2022-12-05T06:46:22;10.85;;;5.30;;
68178;SDS011;54998;42.656;23.382;2022-12-05T06:48:52;13.77;;;5.43;;
68178;SDS011;54998;42.656;23.382;2022-12-05T06:51:18;12.48;;;5.55;;
68178;SDS011;54998;42.656;23.382;2022-12-05T06:53:44;15.07;;;6.28;;
68178;SDS011;54998;42.656;23.382;2022-12-05T06:56:11;11.30;;;5.10;;
68178;SDS011;54998;42.656;23.382;2022-12-05T06:58:39;12.20;;;6.25;;
68178;SDS011;54998;42.656;23.382;2022-12-05T07:01:08;19.30;;;6.65;;
68178;SDS011;54998;42.656;23.382;2022-12-05T07:03:56;14.02;;;5.95;;
68178;SDS011;54998;42.656;23.382;2022-12-05T07:06:23;15.27;;;6.68;;
68178;SDS011;54998;42.656;23.382;2022-12-05T07:08:48;11.43;;;5.93;;
68178;SDS011;54998;42.656;23.382;2022-12-05T07:11:13;12.52;;;5.03;;
68178;SDS011;54998;42.656;23.382;2022-12-05T07:13:39;16.15;;;5.90;;
68178;SDS011;54998;42.656;23.382;2022-12-05T07:16:04;9.05;;;4.80;;
68178;SDS011;54998;42.656;23.382;2022-12-05T07:18:31;11.82;;;5.13;;
68178;SDS011;54998;42.656;23.382;2022-12-05T07:21:07;15.95;;;7.03;;
68178;SDS011;54998;42.656;23.382;2022-12-05T07:23:35;16.38;;;7.45;;
68178;SDS011;54998;42.656;23.382;2022-12-05T07:26:04;9.43;;;4.15;;
68178;SDS011;54998;42.656;23.382;2022-12-05T07:28:31;12.85;;;5.53;;
68178;SDS011;54998;42.656;23.382;2022-12-05T07:31:00;15.00;;;5.85;;
68178;SDS011;54998;42.656;23.382;2022-12-05T07:33:27;9.95;;;4.60;;
68178;SDS011;54998;42.656;23.382;2022-12-05T07:35:57;14.93;;;6.78;;
68178;SDS011;54998;42.656;23.382;2022-12-05T07:38:24;6.45;;;3.33;;
68178;SDS011;54998;42.656;23.382;2022-12-05T07:40:49;11.45;;;5.40;;
68178;SDS011;54998;42.656;23.382;2022-12-05T07:43:15;7.88;;;3.75;;
68178;SDS011;54998;42.656;23.382;2022-12-05T07:45:40;13.63;;;5.80;;
68178;SDS011;54998;42.656;23.382;2022-12-05T07:48:06;11.05;;;5.57;;
68178;SDS011;54998;42.656;23.382;2022-12-05T07:50:31;10.57;;;5.15;;
68178;SDS011;54998;42.656;23.382;2022-12-05T07:52:56;13.57;;;5.20;;
68178;SDS011;54998;42.656;23.382;2022-12-05T07:55:22;11.40;;;5.43;;
68178;SDS011;54998;42.656;23.382;2022-12-05T07:57:47;13.27;;;6.43;;
68178;SDS011;54998;42.656;23.382;2022-12-05T08:00:13;13.70;;;6.40;;
68178;SDS011;54998;42.656;23.382;2022-12-05T08:02:39;10.35;;;5.57;;
68178;SDS011;54998;42.656;23.382;2022-12-05T08:05:04;9.95;;;4.82;;
68178;SDS011;54998;42.656;23.382;2022-12-05T08:07:30;15.70;;;5.45;;
68178;SDS011;54998;42.656;23.382;2022-12-05T08:09:55;11.85;;;6.00;;
68178;SDS011;54998;42.656;23.382;2022-12-05T08:12:20;8.75;;;3.75;;
68178;SDS011;54998;42.656;23.382;2022-12-05T08:14:46;10.38;;;4.57;;
68178;SDS011;54998;42.656;23.382;2022-12-05T08:17:11;7.85;;;3.55;;
68178;SDS011;54998;42.656;23.382;2022-12-05T08:19:37;6.18;;;3.30;;
68178;SDS011;54998;42.656;23.382;2022-12-05T08:22:02;6.47;;;3.30;;
68178;SDS011;54998;42.656;23.382;2022-12-05T08:24:28;12.10;;;5.25;;
68178;SDS011;54998;42.656;23.382;2022-12-05T08:26:53;10.90;;;4.32;;
68178;SDS011;54998;42.656;23.382;2022-12-05T08:29:19;9.80;;;3.90;;
68178;SDS011;54998;42.656;23.382;2022-12-05T08:31:47;5.97;;;3.00;;
68178;SDS011;54998;42.656;23.382;2022-12-05T08:34:14;4.75;;;3.03;;
68178;SDS011;54998;42.656;23.382;2022-12-05T08:36:42;6.75;;;3.83;;
68178;SDS011;54998;42.656;23.382;2022-12-05T08:39:09;6.82;;;3.25;;
68178;SDS011;54998;42.656;23.382;2022-12-05T08:41:38;7.63;;;3.58;;
68178;SDS011;54998;42.656;23.382;2022-12-05T08:44:04;5.75;;;3.53;;
68178;SDS011;54998;42.656;23.382;2022-12-05T08:46:32;8.10;;;4.07;;
68178;SDS011;54998;42.656;23.382;2022-12-05T08:49:00;7.78;;;4.03;;
68178;SDS011;54998;42.656;23.382;2022-12-05T08:51:27;11.00;;;4.60;;
68178;SDS011;54998;42.656;23.382;2022-12-05T08:53:52;12.77;;;5.20;;
68178;SDS011;54998;42.656;23.382;2022-12-05T08:56:20;9.02;;;4.85;;
68178;SDS011;54998;42.656;23.382;2022-12-05T08:58:46;10.15;;;4.57;;
68178;SDS011;54998;42.656;23.382;2022-12-05T09:01:12;9.00;;;5.25;;
68178;SDS011;54998;42.656;23.382;2022-12-05T09:03:40;11.65;;;5.32;;
68178;SDS011;54998;42.656;23.382;2022-12-05T09:06:12;9.35;;;4.85;;
68178;SDS011;54998;42.656;23.382;2022-12-05T09:08:39;10.38;;;4.82;;
68178;SDS011;54998;42.656;23.382;2022-12-05T09:11:09;10.07;;;4.95;;
68178;SDS011;54998;42.656;23.382;2022-12-05T09:13:36;11.40;;;5.20;;
68178;SDS011;54998;42.656;23.382;2022-12-05T09:16:06;9.40;;;4.38;;
68178;SDS011;54998;42.656;23.382;2022-12-05T09:18:33;9.85;;;4.82;;
68178;SDS011;54998;42.656;23.382;2022-12-05T09:21:03;11.10;;;5.28;;
68178;SDS011;54998;42.656;23.382;2022-12-05T09:23:39;11.80;;;5.80;;
68178;SDS011;54998;42.656;23.382;2022-12-05T09:26:06;12.80;;;6.00;;
68178;SDS011;54998;42.656;23.382;2022-12-05T09:28:33;13.20;;;5.80;;
68178;SDS011;54998;42.656;23.382;2022-12-05T09:31:02;15.05;;;5.75;;
68178;SDS011;54998;42.656;23.382;2022-12-05T09:33:30;12.40;;;5.75;;
68178;SDS011;54998;42.656;23.382;2022-12-05T09:35:58;7.32;;;4.05;;
68178;SDS011;54998;42.656;23.382;2022-12-05T09:38:23;8.38;;;3.92;;
68178;SDS011;54998;42.656;23.382;2022-12-05T09:40:59;7.40;;;4.00;;
68178;SDS011;54998;42.656;23.382;2022-12-05T10:37:42;10.80;;;4.95;;
68178;SDS011;54998;42.656;23.382;2022-12-05T10:40:11;10.65;;;5.18;;
68178;SDS011;54998;42.656;23.382;2022-12-05T10:42:37;9.63;;;4.82;;
68178;SDS011;54998;42.656;23.382;2022-12-05T10:45:03;9.80;;;4.90;;
68178;SDS011;54998;42.656;23.382;2022-12-05T10:47:33;10.95;;;5.43;;
68178;SDS011;54998;42.656;23.382;2022-12-05T10:52:29;11.48;;;6.03;;
68178;SDS011;54998;42.656;23.382;2022-12-05T10:54:56;11.70;;;4.28;;
68178;SDS011;54998;42.656;23.382;2022-12-05T10:57:27;12.85;;;4.95;;
68178;SDS011;54998;42.656;23.382;2022-12-05T10:59:54;10.18;;;5.72;;
68178;SDS011;54998;42.656;23.382;2022-12-05T11:02:24;10.07;;;5.10;;
68178;SDS011;54998;42.656;23.382;2022-12-05T11:04:52;12.45;;;6.45;;
68178;SDS011;54998;42.656;23.382;2022-12-05T11:07:44;8.98;;;5.13;;
68178;SDS011;54998;42.656;23.382;2022-12-05T11:12:55;11.10;;;5.30;;
68178;SDS011;54998;42.656;23.382;2022-12-05T11:15:23;7.43;;;4.38;;
68178;SDS011;54998;42.656;23.382;2022-12-05T11:17:52;11.13;;;4.22;;
68178;SDS011;54998;42.656;23.382;2022-12-05T11:22:48;10.27;;;4.80;;
68178;SDS011;54998;42.656;23.382;2022-12-05T11:25:48;11.88;;;4.50;;
68178;SDS011;54998;42.656;23.382;2022-12-05T11:30:54;9.45;;;4.50;;
68178;SDS011;54998;42.656;23.382;2022-12-05T11:33:21;10.63;;;4.10;;
68178;SDS011;54998;42.656;23.382;2022-12-05T11:35:48;9.70;;;4.30;;
68178;SDS011;54998;42.656;23.382;2022-12-05T11:38:16;8.57;;;4.82;;
68178;SDS011;54998;42.656;23.382;2022-12-05T11:40:49;9.02;;;5.15;;
68178;SDS011;54998;42.656;23.382;2022-12-05T12:00:35;11.15;;;5.22;;
68178;SDS011;54998;42.656;23.382;2022-12-05T12:06:06;15.35;;;6.53;;
68178;SDS011;54998;42.656;23.382;2022-12-05T12:08:35;13.35;;;6.85;;
68178;SDS011;54998;42.656;23.382;2022-12-05T12:19:37;13.70;;;6.43;;
68178;SDS011;54998;42.656;23.382;2022-12-05T12:33:32;17.90;;;8.18;;
68178;SDS011;54998;42.656;23.382;2022-12-05T12:39:05;19.95;;;8.13;;
68178;SDS011;54998;42.656;23.382;2022-12-05T12:47:01;17.95;;;7.65;;
68178;SDS011;54998;42.656;23.382;2022-12-05T12:52:21;15.82;;;7.53;;
68178;SDS011;54998;42.656;23.382;2022-12-05T12:54:53;21.00;;;9.00;;
68178;SDS011;54998;42.656;23.382;2022-12-05T13:00:22;17.50;;;8.20;;
68178;SDS011;54998;42.656;23.382;2022-12-05T13:03:09;15.90;;;7.63;;
68178;SDS011;54998;42.656;23.382;2022-12-05T13:08:49;20.10;;;8.18;;
68178;SDS011;54998;42.656;23.382;2022-12-05T13:11:24;21.13;;;8.43;;
68178;SDS011;54998;42.656;23.382;2022-12-05T13:13:53;18.27;;;9.00;;
68178;SDS011;54998;42.656;23.382;2022-12-05T13:16:30;23.30;;;10.25;;
68178;SDS011;54998;42.656;23.382;2022-12-05T13:18:59;20.88;;;8.32;;
68178;SDS011;54998;42.656;23.382;2022-12-05T13:21:26;17.45;;;8.35;;
68178;SDS011;54998;42.656;23.382;2022-12-05T13:23:53;21.05;;;9.25;;
68178;SDS011;54998;42.656;23.382;2022-12-05T13:26:23;20.25;;;8.63;;
68178;SDS011;54998;42.656;23.382;2022-12-05T13:28:52;23.35;;;9.90;;
68178;SDS011;54998;42.656;23.382;2022-12-05T13:31:41;28.90;;;10.63;;
68178;SDS011;54998;42.656;23.382;2022-12-05T13:34:53;19.10;;;7.72;;
68178;SDS011;54998;42.656;23.382;2022-12-05T13:37:10;22.90;;;9.32;;
68178;SDS011;54998;42.656;23.382;2022-12-05T13:43:17;21.98;;;7.75;;
68178;SDS011;54998;42.656;23.382;2022-12-05T13:48:32;16.13;;;8.70;;
68178;SDS011;54998;42.656;23.382;2022-12-05T13:51:10;18.55;;;8.07;;
68178;SDS011;54998;42.656;23.382;2022-12-05T13:53:49;19.02;;;8.73;;
68178;SDS011;54998;42.656;23.382;2022-12-05T13:58:55;16.40;;;7.30;;
68178;SDS011;54998;42.656;23.382;2022-12-05T14:17:29;26.08;;;9.95;;
68178;SDS011;54998;42.656;23.382;2022-12-05T14:36:33;22.15;;;8.95;;
68178;SDS011;54998;42.656;23.382;2022-12-05T14:38:59;24.63;;;10.57;;
68178;SDS011;54998;42.656;23.382;2022-12-05T14:41:26;28.65;;;11.23;;
68178;SDS011;54998;42.656;23.382;2022-12-05T14:43:59;28.48;;;10.60;;
68178;SDS011;54998;42.656;23.382;2022-12-05T14:46:30;24.58;;;10.02;;
68178;SDS011;54998;42.656;23.382;2022-12-05T14:48:58;24.77;;;9.95;;
68178;SDS011;54998;42.656;23.382;2022-12-05T14:51:59;18.48;;;7.93;;
68178;SDS011;54998;42.656;23.382;2022-12-05T14:54:33;28.55;;;10.85;;
68178;SDS011;54998;42.656;23.382;2022-12-05T14:57:05;24.92;;;10.40;;
68178;SDS011;54998;42.656;23.382;2022-12-05T15:11:47;30.52;;;12.40;;
68178;SDS011;54998;42.656;23.382;2022-12-05T15:14:17;28.52;;;11.05;;
68178;SDS011;54998;42.656;23.382;2022-12-05T15:19:16;23.08;;;10.80;;
68178;SDS011;54998;42.656;23.382;2022-12-05T15:21:48;22.30;;;9.63;;
68178;SDS011;54998;42.656;23.382;2022-12-05T15:24:20;27.70;;;12.43;;
68178;SDS011;54998;42.656;23.382;2022-12-05T15:26:55;25.13;;;12.00;;
68178;SDS011;54998;42.656;23.382;2022-12-05T15:29:26;23.90;;;11.27;;
68178;SDS011;54998;42.656;23.382;2022-12-05T15:32:01;27.63;;;12.00;;
68178;SDS011;54998;42.656;23.382;2022-12-05T15:34:28;28.63;;;13.20;;
68178;SDS011;54998;42.656;23.382;2022-12-05T15:39:48;27.60;;;12.43;;
68178;SDS011;54998;42.656;23.382;2022-12-05T15:42:17;32.67;;;13.88;;
68178;SDS011;54998;42.656;23.382;2022-12-05T15:44:44;29.55;;;12.40;;
68178;SDS011;54998;42.656;23.382;2022-12-05T15:47:22;33.70;;;14.48;;
68178;SDS011;54998;42.656;23.382;2022-12-05T15:49:49;30.40;;;11.85;;
68178;SDS011;54998;42.656;23.382;2022-12-05T15:54:47;25.38;;;11.88;;
68178;SDS011;54998;42.656;23.382;2022-12-05T15:57:17;26.30;;;12.38;;
68178;SDS011;54998;42.656;23.382;2022-12-05T15:59:48;28.52;;;12.27;;
68178;SDS011;54998;42.656;23.382;2022-12-05T16:02:21;28.25;;;12.45;;
68178;SDS011;54998;42.656;23.382;2022-12-05T16:04:51;22.92;;;10.65;;
68178;SDS011;54998;42.656;23.382;2022-12-05T16:07:19;25.15;;;11.25;;
68178;SDS011;54998;42.656;23.382;2022-12-05T16:09:47;29.15;;;12.75;;
68178;SDS011;54998;42.656;23.382;2022-12-05T16:12:21;28.48;;;11.48;;
68178;SDS011;54998;42.656;23.382;2022-12-05T16:14:48;25.90;;;11.80;;
68178;SDS011;54998;42.656;23.382;2022-12-05T16:17:16;27.23;;;11.85;;
68178;SDS011;54998;42.656;23.382;2022-12-05T16:19:43;29.88;;;12.90;;
68178;SDS011;54998;42.656;23.382;2022-12-05T16:24:40;26.38;;;11.45;;
68178;SDS011;54998;42.656;23.382;2022-12-05T16:27:24;28.85;;;12.30;;
68178;SDS011;54998;42.656;23.382;2022-12-05T16:32:44;29.75;;;13.23;;
68178;SDS011;54998;42.656;23.382;2022-12-05T16:40:49;24.20;;;11.95;;
68178;SDS011;54998;42.656;23.382;2022-12-05T16:45:54;21.48;;;9.85;;
68178;SDS011;54998;42.656;23.382;2022-12-05T16:48:32;16.52;;;8.80;;
68178;SDS011;54998;42.656;23.382;2022-12-05T16:51:31;19.92;;;9.43;;
68178;SDS011;54998;42.656;23.382;2022-12-05T16:53:52;20.15;;;9.35;;
68178;SDS011;54998;42.656;23.382;2022-12-05T16:56:28;20.52;;;9.80;;
68178;SDS011;54998;42.656;23.382;2022-12-05T16:58:56;19.85;;;9.40;;
68178;SDS011;54998;42.656;23.382;2022-12-05T17:01:23;20.95;;;9.65;;
68178;SDS011;54998;42.656;23.382;2022-12-05T17:03:50;23.42;;;9.80;;
68178;SDS011;54998;42.656;23.382;2022-12-05T17:06:17;19.75;;;9.07;;
68178;SDS011;54998;42.656;23.382;2022-12-05T17:08:45;22.35;;;10.05;;
68178;SDS011;54998;42.656;23.382;2022-12-05T17:13:57;18.98;;;9.63;;
68178;SDS011;54998;42.656;23.382;2022-12-05T17:16:23;19.27;;;9.50;;
68178;SDS011;54998;42.656;23.382;2022-12-05T17:18:50;15.73;;;6.80;;
68178;SDS011;54998;42.656;23.382;2022-12-05T17:21:17;22.05;;;8.88;;
68178;SDS011;54998;42.656;23.382;2022-12-05T17:23:45;17.90;;;8.18;;
68178;SDS011;54998;42.656;23.382;2022-12-05T17:26:12;15.52;;;7.20;;
68178;SDS011;54998;42.656;23.382;2022-12-05T17:28:38;16.80;;;8.15;;
68178;SDS011;54998;42.656;23.382;2022-12-05T17:31:04;18.42;;;8.23;;
68178;SDS011;54998;42.656;23.382;2022-12-05T17:33:30;22.08;;;8.63;;
68178;SDS011;54998;42.656;23.382;2022-12-05T17:35:56;18.60;;;8.98;;
68178;SDS011;54998;42.656;23.382;2022-12-05T17:38:22;19.70;;;8.63;;
68178;SDS011;54998;42.656;23.382;2022-12-05T17:40:47;19.25;;;9.10;;
68178;SDS011;54998;42.656;23.382;2022-12-05T17:43:13;18.23;;;7.85;;
68178;SDS011;54998;42.656;23.382;2022-12-05T17:45:39;18.00;;;8.57;;
68178;SDS011;54998;42.656;23.382;2022-12-05T17:48:04;18.30;;;8.50;;
68178;SDS011;54998;42.656;23.382;2022-12-05T17:50:30;15.15;;;7.03;;
68178;SDS011;54998;42.656;23.382;2022-12-05T17:52:56;20.08;;;8.23;;
68178;SDS011;54998;42.656;23.382;2022-12-05T17:55:23;15.65;;;7.93;;
68178;SDS011;54998;42.656;23.382;2022-12-05T17:57:51;14.68;;;7.35;;
68178;SDS011;54998;42.656;23.382;2022-12-05T18:00:18;20.77;;;7.80;;
68178;SDS011;54998;42.656;23.382;2022-12-05T18:02:44;17.70;;;8.30;;
68178;SDS011;54998;42.656;23.382;2022-12-05T18:05:10;21.35;;;9.15;;
68178;SDS011;54998;42.656;23.382;2022-12-05T18:07:37;19.98;;;9.23;;
68178;SDS011;54998;42.656;23.382;2022-12-05T18:10:07;22.92;;;10.02;;
68178;SDS011;54998;42.656;23.382;2022-12-05T18:12:54;24.48;;;9.65;;
68178;SDS011;54998;42.656;23.382;2022-12-05T18:15:25;23.10;;;11.23;;
68178;SDS011;54998;42.656;23.382;2022-12-05T18:18:12;21.40;;;8.93;;
68178;SDS011;54998;42.656;23.382;2022-12-05T18:23:50;24.42;;;10.05;;
68178;SDS011;54998;42.656;23.382;2022-12-05T18:26:15;18.40;;;8.85;;
68178;SDS011;54998;42.656;23.382;2022-12-05T18:28:40;18.02;;;8.85;;
68178;SDS011;54998;42.656;23.382;2022-12-05T18:31:07;26.00;;;9.95;;
68178;SDS011;54998;42.656;23.382;2022-12-05T18:33:35;23.98;;;9.98;;
68178;SDS011;54998;42.656;23.382;2022-12-05T18:36:07;28.95;;;10.13;;